sensor_id;sensor_type;location;lat;lon;timestamp;P1;durP1;ratioP1;P2;durP2;ratioP2
8474;SDS011;4274;52.012;8.448;2022-08-19T00:01:37;58.83;;;11.30;;
8474;SDS011;4274;52.012;8.448;2022-08-19T00:04:05;70.50;;;11.53;;
8474;SDS011;4274;52.012;8.448;2022-08-19T00:06:34;59.57;;;9.90;;
8474;SDS011;4274;52.012;8.448;2022-08-19T00:09:02;59.30;;;10.13;;
8474;SDS011;4274;52.012;8.448;2022-08-19T00:11:30;64.27;;;11.77;;
8474;SDS011;4274;52.012;8.448;2022-08-19T00:13:55;60.07;;;10.80;;
8474;SDS011;4274;52.012;8.448;2022-08-19T00:16:21;62.43;;;9.83;;
8474;SDS011;4274;52.012;8.448;2022-08-19T00:18:49;60.00;;;10.37;;
8474;SDS011;4274;52.012;8.448;2022-08-19T00:21:14;63.70;;;10.10;;
8474;SDS011;4274;52.012;8.448;2022-08-19T00:23:40;58.80;;;10.70;;
8474;SDS011;4274;52.012;8.448;2022-08-19T00:26:07;64.67;;;11.33;;
8474;SDS011;4274;52.012;8.448;2022-08-19T00:28:33;60.20;;;11.13;;
8474;SDS011;4274;52.012;8.448;2022-08-19T00:31:00;63.60;;;10.40;;
8474;SDS011;4274;52.012;8.448;2022-08-19T00:33:30;61.57;;;10.90;;
8474;SDS011;4274;52.012;8.448;2022-08-19T00:36:00;66.10;;;12.33;;
8474;SDS011;4274;52.012;8.448;2022-08-19T00:38:26;62.47;;;11.80;;
8474;SDS011;4274;52.012;8.448;2022-08-19T00:40:52;57.90;;;11.37;;
8474;SDS011;4274;52.012;8.448;2022-08-19T00:43:19;62.60;;;12.20;;
8474;SDS011;4274;52.012;8.448;2022-08-19T00:45:46;62.40;;;11.20;;
8474;SDS011;4274;52.012;8.448;2022-08-19T00:48:12;62.13;;;11.63;;
8474;SDS011;4274;52.012;8.448;2022-08-19T00:50:39;62.83;;;12.03;;
8474;SDS011;4274;52.012;8.448;2022-08-19T00:53:08;60.33;;;11.77;;
8474;SDS011;4274;52.012;8.448;2022-08-19T00:55:35;60.40;;;12.47;;
8474;SDS011;4274;52.012;8.448;2022-08-19T00:58:05;65.47;;;11.97;;
8474;SDS011;4274;52.012;8.448;2022-08-19T01:00:34;61.37;;;12.20;;
8474;SDS011;4274;52.012;8.448;2022-08-19T01:03:02;61.40;;;11.97;;
8474;SDS011;4274;52.012;8.448;2022-08-19T01:05:31;56.20;;;11.10;;
8474;SDS011;4274;52.012;8.448;2022-08-19T01:07:58;61.60;;;12.10;;
8474;SDS011;4274;52.012;8.448;2022-08-19T01:10:26;57.23;;;10.97;;
8474;SDS011;4274;52.012;8.448;2022-08-19T01:12:54;61.50;;;11.30;;
8474;SDS011;4274;52.012;8.448;2022-08-19T01:15:23;60.30;;;11.30;;
8474;SDS011;4274;52.012;8.448;2022-08-19T01:17:52;61.10;;;10.20;;
8474;SDS011;4274;52.012;8.448;2022-08-19T01:20:20;59.83;;;12.37;;
8474;SDS011;4274;52.012;8.448;2022-08-19T01:22:52;59.27;;;11.83;;
8474;SDS011;4274;52.012;8.448;2022-08-19T01:25:22;63.80;;;11.20;;
8474;SDS011;4274;52.012;8.448;2022-08-19T01:27:56;63.77;;;12.43;;
8474;SDS011;4274;52.012;8.448;2022-08-19T01:30:25;63.70;;;12.60;;
8474;SDS011;4274;52.012;8.448;2022-08-19T01:32:53;69.20;;;12.13;;
8474;SDS011;4274;52.012;8.448;2022-08-19T01:35:19;67.93;;;12.60;;
8474;SDS011;4274;52.012;8.448;2022-08-19T01:37:53;62.50;;;12.23;;
8474;SDS011;4274;52.012;8.448;2022-08-19T01:40:24;57.70;;;12.23;;
8474;SDS011;4274;52.012;8.448;2022-08-19T01:42:52;62.27;;;11.97;;
8474;SDS011;4274;52.012;8.448;2022-08-19T01:45:19;64.47;;;13.00;;
8474;SDS011;4274;52.012;8.448;2022-08-19T01:47:47;56.80;;;11.70;;
8474;SDS011;4274;52.012;8.448;2022-08-19T01:50:13;64.00;;;12.53;;
8474;SDS011;4274;52.012;8.448;2022-08-19T01:52:39;59.90;;;12.67;;
8474;SDS011;4274;52.012;8.448;2022-08-19T01:55:07;63.00;;;13.00;;
8474;SDS011;4274;52.012;8.448;2022-08-19T01:57:36;65.53;;;13.07;;
8474;SDS011;4274;52.012;8.448;2022-08-19T02:00:05;70.70;;;15.80;;
8474;SDS011;4274;52.012;8.448;2022-08-19T02:02:33;63.77;;;13.73;;
8474;SDS011;4274;52.012;8.448;2022-08-19T02:04:58;61.00;;;13.33;;
8474;SDS011;4274;52.012;8.448;2022-08-19T02:07:24;71.47;;;14.20;;
8474;SDS011;4274;52.012;8.448;2022-08-19T02:09:50;61.60;;;14.27;;
8474;SDS011;4274;52.012;8.448;2022-08-19T02:12:16;65.33;;;13.47;;
8474;SDS011;4274;52.012;8.448;2022-08-19T02:14:41;63.13;;;14.13;;
8474;SDS011;4274;52.012;8.448;2022-08-19T02:17:07;59.90;;;12.97;;
8474;SDS011;4274;52.012;8.448;2022-08-19T02:19:33;72.07;;;15.00;;
8474;SDS011;4274;52.012;8.448;2022-08-19T02:21:59;64.17;;;15.13;;
8474;SDS011;4274;52.012;8.448;2022-08-19T02:24:25;64.93;;;15.17;;
8474;SDS011;4274;52.012;8.448;2022-08-19T02:26:52;69.13;;;15.67;;
8474;SDS011;4274;52.012;8.448;2022-08-19T02:29:18;60.90;;;14.07;;
8474;SDS011;4274;52.012;8.448;2022-08-19T02:31:44;64.37;;;13.87;;
8474;SDS011;4274;52.012;8.448;2022-08-19T02:34:10;64.93;;;14.87;;
8474;SDS011;4274;52.012;8.448;2022-08-19T02:36:36;61.97;;;13.00;;
8474;SDS011;4274;52.012;8.448;2022-08-19T02:39:02;63.43;;;14.47;;
8474;SDS011;4274;52.012;8.448;2022-08-19T02:41:29;64.03;;;13.70;;
8474;SDS011;4274;52.012;8.448;2022-08-19T02:43:58;60.47;;;13.20;;
8474;SDS011;4274;52.012;8.448;2022-08-19T02:46:26;61.33;;;13.93;;
8474;SDS011;4274;52.012;8.448;2022-08-19T02:48:55;68.07;;;13.90;;
8474;SDS011;4274;52.012;8.448;2022-08-19T02:51:23;64.53;;;15.27;;
8474;SDS011;4274;52.012;8.448;2022-08-19T02:53:54;64.57;;;12.50;;
8474;SDS011;4274;52.012;8.448;2022-08-19T02:56:20;55.63;;;12.00;;
8474;SDS011;4274;52.012;8.448;2022-08-19T02:58:46;63.17;;;12.47;;
8474;SDS011;4274;52.012;8.448;2022-08-19T03:01:34;63.47;;;14.10;;
8474;SDS011;4274;52.012;8.448;2022-08-19T03:04:00;57.90;;;12.70;;
8474;SDS011;4274;52.012;8.448;2022-08-19T03:06:28;60.57;;;12.13;;
8474;SDS011;4274;52.012;8.448;2022-08-19T03:08:54;62.53;;;12.73;;
8474;SDS011;4274;52.012;8.448;2022-08-19T03:13:54;64.23;;;14.70;;
8474;SDS011;4274;52.012;8.448;2022-08-19T03:16:20;56.93;;;11.20;;
8474;SDS011;4274;52.012;8.448;2022-08-19T03:18:47;58.20;;;11.80;;
8474;SDS011;4274;52.012;8.448;2022-08-19T03:21:17;65.87;;;13.10;;
8474;SDS011;4274;52.012;8.448;2022-08-19T03:23:48;60.03;;;11.73;;
8474;SDS011;4274;52.012;8.448;2022-08-19T03:26:15;63.90;;;14.50;;
8474;SDS011;4274;52.012;8.448;2022-08-19T03:28:41;63.03;;;14.53;;
8474;SDS011;4274;52.012;8.448;2022-08-19T03:31:10;64.70;;;13.10;;
8474;SDS011;4274;52.012;8.448;2022-08-19T03:33:38;59.37;;;12.50;;
8474;SDS011;4274;52.012;8.448;2022-08-19T03:36:06;67.33;;;13.87;;
8474;SDS011;4274;52.012;8.448;2022-08-19T03:38:34;62.80;;;13.90;;
8474;SDS011;4274;52.012;8.448;2022-08-19T03:41:02;62.70;;;11.70;;
8474;SDS011;4274;52.012;8.448;2022-08-19T03:43:31;62.37;;;14.17;;
8474;SDS011;4274;52.012;8.448;2022-08-19T03:46:02;61.77;;;12.47;;
8474;SDS011;4274;52.012;8.448;2022-08-19T03:48:33;63.67;;;14.23;;
8474;SDS011;4274;52.012;8.448;2022-08-19T03:51:01;63.77;;;14.90;;
8474;SDS011;4274;52.012;8.448;2022-08-19T03:53:27;68.10;;;12.83;;
8474;SDS011;4274;52.012;8.448;2022-08-19T03:55:53;61.63;;;11.90;;
8474;SDS011;4274;52.012;8.448;2022-08-19T03:58:20;60.90;;;12.53;;
8474;SDS011;4274;52.012;8.448;2022-08-19T04:00:47;63.67;;;12.90;;
8474;SDS011;4274;52.012;8.448;2022-08-19T04:03:12;56.67;;;12.00;;
8474;SDS011;4274;52.012;8.448;2022-08-19T04:05:38;60.50;;;11.30;;
8474;SDS011;4274;52.012;8.448;2022-08-19T04:08:04;62.40;;;13.33;;
8474;SDS011;4274;52.012;8.448;2022-08-19T04:10:30;61.13;;;12.63;;
8474;SDS011;4274;52.012;8.448;2022-08-19T04:13:03;61.73;;;13.20;;
8474;SDS011;4274;52.012;8.448;2022-08-19T04:15:31;65.50;;;12.70;;
8474;SDS011;4274;52.012;8.448;2022-08-19T04:18:03;68.90;;;12.47;;
8474;SDS011;4274;52.012;8.448;2022-08-19T04:20:31;59.27;;;11.97;;
8474;SDS011;4274;52.012;8.448;2022-08-19T04:22:56;62.60;;;14.10;;
8474;SDS011;4274;52.012;8.448;2022-08-19T04:25:22;61.00;;;12.90;;
8474;SDS011;4274;52.012;8.448;2022-08-19T04:27:48;56.70;;;12.60;;
8474;SDS011;4274;52.012;8.448;2022-08-19T04:30:14;59.63;;;11.17;;
8474;SDS011;4274;52.012;8.448;2022-08-19T04:32:39;58.20;;;11.60;;
8474;SDS011;4274;52.012;8.448;2022-08-19T04:35:06;60.30;;;12.23;;
8474;SDS011;4274;52.012;8.448;2022-08-19T04:37:32;58.33;;;11.63;;
8474;SDS011;4274;52.012;8.448;2022-08-19T04:39:58;59.93;;;11.67;;
8474;SDS011;4274;52.012;8.448;2022-08-19T04:42:43;62.20;;;12.63;;
8474;SDS011;4274;52.012;8.448;2022-08-19T04:45:11;58.23;;;11.50;;
8474;SDS011;4274;52.012;8.448;2022-08-19T04:47:39;54.47;;;11.43;;
8474;SDS011;4274;52.012;8.448;2022-08-19T04:50:07;58.80;;;11.20;;
8474;SDS011;4274;52.012;8.448;2022-08-19T04:52:34;59.90;;;12.00;;
8474;SDS011;4274;52.012;8.448;2022-08-19T04:54:59;56.83;;;11.33;;
8474;SDS011;4274;52.012;8.448;2022-08-19T04:57:25;59.40;;;11.00;;
8474;SDS011;4274;52.012;8.448;2022-08-19T04:59:55;55.17;;;10.83;;
8474;SDS011;4274;52.012;8.448;2022-08-19T05:02:21;58.03;;;12.10;;
8474;SDS011;4274;52.012;8.448;2022-08-19T05:04:59;59.47;;;12.10;;
8474;SDS011;4274;52.012;8.448;2022-08-19T05:07:25;63.80;;;11.90;;
8474;SDS011;4274;52.012;8.448;2022-08-19T05:09:51;55.40;;;10.80;;
8474;SDS011;4274;52.012;8.448;2022-08-19T05:12:17;61.17;;;11.67;;
8474;SDS011;4274;52.012;8.448;2022-08-19T05:14:43;57.60;;;11.77;;
8474;SDS011;4274;52.012;8.448;2022-08-19T05:17:10;57.23;;;10.07;;
8474;SDS011;4274;52.012;8.448;2022-08-19T05:19:36;57.43;;;12.17;;
8474;SDS011;4274;52.012;8.448;2022-08-19T05:22:20;61.03;;;12.43;;
8474;SDS011;4274;52.012;8.448;2022-08-19T05:25:00;59.93;;;11.67;;
8474;SDS011;4274;52.012;8.448;2022-08-19T05:27:28;56.40;;;11.00;;
8474;SDS011;4274;52.012;8.448;2022-08-19T05:29:53;60.40;;;11.20;;
8474;SDS011;4274;52.012;8.448;2022-08-19T05:32:19;61.80;;;12.63;;
8474;SDS011;4274;52.012;8.448;2022-08-19T05:34:46;59.23;;;12.20;;
8474;SDS011;4274;52.012;8.448;2022-08-19T05:37:12;59.30;;;12.23;;
8474;SDS011;4274;52.012;8.448;2022-08-19T05:39:37;62.37;;;13.70;;
8474;SDS011;4274;52.012;8.448;2022-08-19T05:42:08;57.30;;;12.30;;
8474;SDS011;4274;52.012;8.448;2022-08-19T05:44:36;59.10;;;12.73;;
8474;SDS011;4274;52.012;8.448;2022-08-19T05:47:10;65.83;;;14.87;;
8474;SDS011;4274;52.012;8.448;2022-08-19T05:49:38;63.70;;;14.13;;
8474;SDS011;4274;52.012;8.448;2022-08-19T05:52:04;68.10;;;15.17;;
8474;SDS011;4274;52.012;8.448;2022-08-19T05:54:31;60.87;;;13.83;;
8474;SDS011;4274;52.012;8.448;2022-08-19T05:56:58;65.07;;;14.10;;
8474;SDS011;4274;52.012;8.448;2022-08-19T05:59:23;61.83;;;14.30;;
8474;SDS011;4274;52.012;8.448;2022-08-19T06:01:50;64.23;;;14.40;;
8474;SDS011;4274;52.012;8.448;2022-08-19T06:04:17;68.80;;;16.67;;
8474;SDS011;4274;52.012;8.448;2022-08-19T06:06:44;68.80;;;15.17;;
8474;SDS011;4274;52.012;8.448;2022-08-19T06:09:11;73.47;;;14.40;;
8474;SDS011;4274;52.012;8.448;2022-08-19T06:11:38;63.70;;;14.53;;
8474;SDS011;4274;52.012;8.448;2022-08-19T06:14:11;61.13;;;14.67;;
8474;SDS011;4274;52.012;8.448;2022-08-19T06:16:40;66.07;;;15.23;;
8474;SDS011;4274;52.012;8.448;2022-08-19T06:19:12;60.57;;;13.97;;
8474;SDS011;4274;52.012;8.448;2022-08-19T06:21:41;62.47;;;13.97;;
8474;SDS011;4274;52.012;8.448;2022-08-19T06:24:10;62.80;;;13.67;;
8474;SDS011;4274;52.012;8.448;2022-08-19T07:08:56;63.15;;;10.38;;
8474;SDS011;4274;52.012;8.448;2022-08-19T07:11:23;59.23;;;11.10;;
8474;SDS011;4274;52.012;8.448;2022-08-19T07:13:49;62.75;;;10.30;;
8474;SDS011;4274;52.012;8.448;2022-08-19T07:16:16;57.50;;;10.73;;
8474;SDS011;4274;52.012;8.448;2022-08-19T07:18:44;55.33;;;9.50;;
8474;SDS011;4274;52.012;8.448;2022-08-19T07:26:42;57.83;;;9.07;;
8474;SDS011;4274;52.012;8.448;2022-08-19T07:29:08;58.33;;;8.10;;
8474;SDS011;4274;52.012;8.448;2022-08-19T07:31:35;55.40;;;8.43;;
8474;SDS011;4274;52.012;8.448;2022-08-19T07:34:02;56.20;;;9.20;;
8474;SDS011;4274;52.012;8.448;2022-08-19T07:36:36;55.57;;;9.00;;
8474;SDS011;4274;52.012;8.448;2022-08-19T07:43:33;62.17;;;7.38;;
8474;SDS011;4274;52.012;8.448;2022-08-19T07:46:00;55.30;;;8.50;;
8474;SDS011;4274;52.012;8.448;2022-08-19T07:51:32;56.05;;;7.47;;
8474;SDS011;4274;52.012;8.448;2022-08-19T08:42:01;55.08;;;5.70;;
8474;SDS011;4274;52.012;8.448;2022-08-19T08:44:43;52.40;;;5.60;;
8474;SDS011;4274;52.012;8.448;2022-08-19T08:47:36;51.03;;;5.03;;
8474;SDS011;4274;52.012;8.448;2022-08-19T08:50:05;58.40;;;5.63;;
8474;SDS011;4274;52.012;8.448;2022-08-19T08:52:37;55.70;;;5.40;;
8474;SDS011;4274;52.012;8.448;2022-08-19T08:55:08;51.33;;;6.10;;
8474;SDS011;4274;52.012;8.448;2022-08-19T09:00:15;49.53;;;5.37;;
8474;SDS011;4274;52.012;8.448;2022-08-19T09:05:55;53.97;;;4.20;;
8474;SDS011;4274;52.012;8.448;2022-08-19T09:10:54;51.37;;;5.27;;
8474;SDS011;4274;52.012;8.448;2022-08-19T09:16:18;53.27;;;5.90;;
8474;SDS011;4274;52.012;8.448;2022-08-19T09:21:12;50.80;;;4.63;;
8474;SDS011;4274;52.012;8.448;2022-08-19T09:23:38;55.53;;;4.23;;
8474;SDS011;4274;52.012;8.448;2022-08-19T09:26:08;53.67;;;3.70;;
8474;SDS011;4274;52.012;8.448;2022-08-19T09:28:46;55.58;;;3.85;;
8474;SDS011;4274;52.012;8.448;2022-08-19T09:31:16;51.60;;;4.07;;
8474;SDS011;4274;52.012;8.448;2022-08-19T09:33:43;52.37;;;3.60;;
8474;SDS011;4274;52.012;8.448;2022-08-19T09:36:10;53.77;;;3.93;;
8474;SDS011;4274;52.012;8.448;2022-08-19T09:38:37;52.60;;;4.10;;
8474;SDS011;4274;52.012;8.448;2022-08-19T09:41:08;48.10;;;3.30;;
8474;SDS011;4274;52.012;8.448;2022-08-19T09:43:38;53.03;;;4.30;;
8474;SDS011;4274;52.012;8.448;2022-08-19T09:46:06;53.30;;;4.10;;
8474;SDS011;4274;52.012;8.448;2022-08-19T09:48:32;52.00;;;4.53;;
8474;SDS011;4274;52.012;8.448;2022-08-19T09:51:05;47.80;;;3.43;;
8474;SDS011;4274;52.012;8.448;2022-08-19T09:53:36;48.90;;;4.13;;
8474;SDS011;4274;52.012;8.448;2022-08-19T09:56:03;51.43;;;4.60;;
8474;SDS011;4274;52.012;8.448;2022-08-19T09:58:30;49.97;;;3.93;;
8474;SDS011;4274;52.012;8.448;2022-08-19T10:00:57;52.87;;;4.80;;
8474;SDS011;4274;52.012;8.448;2022-08-19T10:03:24;49.90;;;4.40;;
8474;SDS011;4274;52.012;8.448;2022-08-19T10:05:52;49.93;;;5.10;;
8474;SDS011;4274;52.012;8.448;2022-08-19T10:08:20;55.10;;;5.13;;
8474;SDS011;4274;52.012;8.448;2022-08-19T10:10:48;52.20;;;4.17;;
8474;SDS011;4274;52.012;8.448;2022-08-19T10:13:16;51.73;;;4.57;;
8474;SDS011;4274;52.012;8.448;2022-08-19T10:15:45;55.53;;;4.03;;
8474;SDS011;4274;52.012;8.448;2022-08-19T10:18:10;48.33;;;3.60;;
8474;SDS011;4274;52.012;8.448;2022-08-19T10:20:36;51.43;;;3.37;;
8474;SDS011;4274;52.012;8.448;2022-08-19T10:23:02;48.67;;;3.30;;
8474;SDS011;4274;52.012;8.448;2022-08-19T10:25:28;50.63;;;3.43;;
8474;SDS011;4274;52.012;8.448;2022-08-19T10:27:53;50.20;;;3.37;;
8474;SDS011;4274;52.012;8.448;2022-08-19T10:30:20;52.80;;;3.23;;
8474;SDS011;4274;52.012;8.448;2022-08-19T10:32:46;48.67;;;3.07;;
8474;SDS011;4274;52.012;8.448;2022-08-19T10:35:12;47.33;;;2.70;;
8474;SDS011;4274;52.012;8.448;2022-08-19T10:37:38;48.97;;;3.33;;
8474;SDS011;4274;52.012;8.448;2022-08-19T10:40:05;48.97;;;3.40;;
8474;SDS011;4274;52.012;8.448;2022-08-19T10:42:32;53.33;;;3.50;;
8474;SDS011;4274;52.012;8.448;2022-08-19T10:44:59;52.70;;;3.77;;
8474;SDS011;4274;52.012;8.448;2022-08-19T10:47:24;50.20;;;4.07;;
8474;SDS011;4274;52.012;8.448;2022-08-19T10:49:50;49.33;;;4.30;;
8474;SDS011;4274;52.012;8.448;2022-08-19T10:52:39;49.57;;;3.63;;
8474;SDS011;4274;52.012;8.448;2022-08-19T10:55:07;50.27;;;4.47;;
8474;SDS011;4274;52.012;8.448;2022-08-19T10:57:51;49.17;;;3.30;;
8474;SDS011;4274;52.012;8.448;2022-08-19T11:00:18;49.10;;;3.20;;
8474;SDS011;4274;52.012;8.448;2022-08-19T11:02:47;48.47;;;3.30;;
8474;SDS011;4274;52.012;8.448;2022-08-19T11:05:13;49.27;;;3.40;;
8474;SDS011;4274;52.012;8.448;2022-08-19T11:07:39;51.50;;;3.20;;
8474;SDS011;4274;52.012;8.448;2022-08-19T11:10:06;50.23;;;3.17;;
8474;SDS011;4274;52.012;8.448;2022-08-19T11:12:35;48.83;;;3.20;;
8474;SDS011;4274;52.012;8.448;2022-08-19T11:15:04;51.20;;;2.83;;
8474;SDS011;4274;52.012;8.448;2022-08-19T11:17:31;54.97;;;3.27;;
8474;SDS011;4274;52.012;8.448;2022-08-19T11:19:57;51.57;;;2.80;;
8474;SDS011;4274;52.012;8.448;2022-08-19T11:22:22;51.30;;;2.77;;
8474;SDS011;4274;52.012;8.448;2022-08-19T11:24:48;52.60;;;2.67;;
8474;SDS011;4274;52.012;8.448;2022-08-19T11:27:13;48.97;;;2.67;;
8474;SDS011;4274;52.012;8.448;2022-08-19T11:29:39;50.40;;;3.00;;
8474;SDS011;4274;52.012;8.448;2022-08-19T11:32:07;50.97;;;2.80;;
8474;SDS011;4274;52.012;8.448;2022-08-19T11:34:35;52.50;;;2.70;;
8474;SDS011;4274;52.012;8.448;2022-08-19T11:37:02;49.30;;;3.03;;
8474;SDS011;4274;52.012;8.448;2022-08-19T11:39:29;49.20;;;3.10;;
8474;SDS011;4274;52.012;8.448;2022-08-19T11:41:57;48.67;;;3.07;;
8474;SDS011;4274;52.012;8.448;2022-08-19T11:44:23;49.90;;;3.07;;
8474;SDS011;4274;52.012;8.448;2022-08-19T11:46:50;48.90;;;2.93;;
8474;SDS011;4274;52.012;8.448;2022-08-19T11:49:18;48.33;;;2.87;;
8474;SDS011;4274;52.012;8.448;2022-08-19T11:51:46;49.30;;;2.90;;
8474;SDS011;4274;52.012;8.448;2022-08-19T11:54:13;50.67;;;2.70;;
8474;SDS011;4274;52.012;8.448;2022-08-19T11:56:41;48.87;;;3.03;;
8474;SDS011;4274;52.012;8.448;2022-08-19T11:59:07;48.47;;;2.73;;
8474;SDS011;4274;52.012;8.448;2022-08-19T12:01:34;50.87;;;3.40;;
8474;SDS011;4274;52.012;8.448;2022-08-19T12:04:00;48.80;;;2.73;;
8474;SDS011;4274;52.012;8.448;2022-08-19T12:06:29;49.73;;;2.80;;
8474;SDS011;4274;52.012;8.448;2022-08-19T12:08:58;48.30;;;2.70;;
8474;SDS011;4274;52.012;8.448;2022-08-19T12:11:25;49.70;;;2.93;;
8474;SDS011;4274;52.012;8.448;2022-08-19T12:13:52;53.30;;;2.70;;
8474;SDS011;4274;52.012;8.448;2022-08-19T12:16:20;49.35;;;2.88;;
8474;SDS011;4274;52.012;8.448;2022-08-19T12:18:49;49.60;;;2.90;;
8474;SDS011;4274;52.012;8.448;2022-08-19T12:21:17;49.97;;;2.90;;
8474;SDS011;4274;52.012;8.448;2022-08-19T12:23:46;50.27;;;3.03;;
8474;SDS011;4274;52.012;8.448;2022-08-19T12:26:13;53.50;;;3.23;;
8474;SDS011;4274;52.012;8.448;2022-08-19T12:28:39;49.00;;;2.93;;
8474;SDS011;4274;52.012;8.448;2022-08-19T12:31:06;51.80;;;3.20;;
8474;SDS011;4274;52.012;8.448;2022-08-19T12:33:32;50.40;;;3.27;;
8474;SDS011;4274;52.012;8.448;2022-08-19T12:36:02;52.63;;;3.20;;
8474;SDS011;4274;52.012;8.448;2022-08-19T12:38:30;51.77;;;2.90;;
8474;SDS011;4274;52.012;8.448;2022-08-19T12:40:57;51.50;;;3.37;;
8474;SDS011;4274;52.012;8.448;2022-08-19T12:43:22;48.30;;;2.70;;
8474;SDS011;4274;52.012;8.448;2022-08-19T12:45:48;49.80;;;3.03;;
8474;SDS011;4274;52.012;8.448;2022-08-19T12:48:14;50.47;;;3.13;;
8474;SDS011;4274;52.012;8.448;2022-08-19T12:50:40;52.27;;;3.63;;
8474;SDS011;4274;52.012;8.448;2022-08-19T12:53:06;50.47;;;3.50;;
8474;SDS011;4274;52.012;8.448;2022-08-19T12:55:32;51.37;;;3.27;;
8474;SDS011;4274;52.012;8.448;2022-08-19T12:57:58;49.47;;;3.07;;
8474;SDS011;4274;52.012;8.448;2022-08-19T13:00:26;48.97;;;3.10;;
8474;SDS011;4274;52.012;8.448;2022-08-19T13:02:52;50.27;;;3.67;;
8474;SDS011;4274;52.012;8.448;2022-08-19T13:05:19;49.83;;;3.60;;
8474;SDS011;4274;52.012;8.448;2022-08-19T13:07:47;48.90;;;2.73;;
8474;SDS011;4274;52.012;8.448;2022-08-19T13:10:15;50.60;;;3.37;;
8474;SDS011;4274;52.012;8.448;2022-08-19T13:12:44;49.50;;;3.57;;
8474;SDS011;4274;52.012;8.448;2022-08-19T13:15:12;51.87;;;3.60;;
8474;SDS011;4274;52.012;8.448;2022-08-19T13:17:38;51.10;;;3.57;;
8474;SDS011;4274;52.012;8.448;2022-08-19T13:20:05;53.90;;;3.80;;
8474;SDS011;4274;52.012;8.448;2022-08-19T13:22:33;50.60;;;3.40;;
8474;SDS011;4274;52.012;8.448;2022-08-19T13:25:00;51.00;;;3.30;;
8474;SDS011;4274;52.012;8.448;2022-08-19T13:27:27;49.43;;;3.30;;
8474;SDS011;4274;52.012;8.448;2022-08-19T13:29:52;49.83;;;3.13;;
8474;SDS011;4274;52.012;8.448;2022-08-19T13:32:36;55.00;;;3.27;;
8474;SDS011;4274;52.012;8.448;2022-08-19T13:35:20;50.53;;;3.40;;
8474;SDS011;4274;52.012;8.448;2022-08-19T13:37:46;49.57;;;3.10;;
8474;SDS011;4274;52.012;8.448;2022-08-19T13:40:13;49.07;;;3.10;;
8474;SDS011;4274;52.012;8.448;2022-08-19T13:42:47;48.77;;;3.20;;
8474;SDS011;4274;52.012;8.448;2022-08-19T13:45:15;50.57;;;3.20;;
8474;SDS011;4274;52.012;8.448;2022-08-19T13:47:44;49.40;;;3.40;;
8474;SDS011;4274;52.012;8.448;2022-08-19T13:50:11;48.90;;;3.13;;
8474;SDS011;4274;52.012;8.448;2022-08-19T13:52:39;49.07;;;3.33;;
8474;SDS011;4274;52.012;8.448;2022-08-19T13:55:05;54.00;;;3.40;;
8474;SDS011;4274;52.012;8.448;2022-08-19T13:57:32;49.17;;;3.00;;
8474;SDS011;4274;52.012;8.448;2022-08-19T13:59:58;48.63;;;3.00;;
8474;SDS011;4274;52.012;8.448;2022-08-19T14:02:24;51.30;;;3.03;;
8474;SDS011;4274;52.012;8.448;2022-08-19T14:04:51;52.90;;;3.63;;
8474;SDS011;4274;52.012;8.448;2022-08-19T14:07:16;48.60;;;3.03;;
8474;SDS011;4274;52.012;8.448;2022-08-19T14:09:42;49.00;;;3.23;;
8474;SDS011;4274;52.012;8.448;2022-08-19T14:12:08;53.40;;;3.10;;
8474;SDS011;4274;52.012;8.448;2022-08-19T14:14:37;53.80;;;3.80;;
8474;SDS011;4274;52.012;8.448;2022-08-19T14:17:06;49.27;;;3.10;;
8474;SDS011;4274;52.012;8.448;2022-08-19T14:19:33;49.60;;;3.30;;
8474;SDS011;4274;52.012;8.448;2022-08-19T14:21:58;49.50;;;3.40;;
8474;SDS011;4274;52.012;8.448;2022-08-19T14:24:24;49.30;;;3.43;;
8474;SDS011;4274;52.012;8.448;2022-08-19T14:26:49;51.57;;;3.50;;
8474;SDS011;4274;52.012;8.448;2022-08-19T14:29:15;53.13;;;3.37;;
8474;SDS011;4274;52.012;8.448;2022-08-19T14:31:41;50.40;;;3.40;;
8474;SDS011;4274;52.012;8.448;2022-08-19T14:34:08;49.60;;;3.47;;
8474;SDS011;4274;52.012;8.448;2022-08-19T14:36:34;49.00;;;3.53;;
8474;SDS011;4274;52.012;8.448;2022-08-19T14:39:01;50.33;;;3.70;;
8474;SDS011;4274;52.012;8.448;2022-08-19T14:41:26;49.17;;;3.57;;
8474;SDS011;4274;52.012;8.448;2022-08-19T14:43:53;52.47;;;3.87;;
8474;SDS011;4274;52.012;8.448;2022-08-19T14:46:20;50.80;;;3.63;;
8474;SDS011;4274;52.012;8.448;2022-08-19T14:48:47;51.00;;;4.27;;
8474;SDS011;4274;52.012;8.448;2022-08-19T14:51:14;50.10;;;3.73;;
8474;SDS011;4274;52.012;8.448;2022-08-19T14:53:40;50.10;;;3.57;;
8474;SDS011;4274;52.012;8.448;2022-08-19T14:56:10;50.47;;;3.70;;
8474;SDS011;4274;52.012;8.448;2022-08-19T14:58:38;57.17;;;4.00;;
8474;SDS011;4274;52.012;8.448;2022-08-19T15:01:06;48.90;;;3.50;;
8474;SDS011;4274;52.012;8.448;2022-08-19T15:03:32;48.97;;;3.23;;
8474;SDS011;4274;52.012;8.448;2022-08-19T15:05:59;49.20;;;3.50;;
8474;SDS011;4274;52.012;8.448;2022-08-19T15:08:26;52.00;;;3.93;;
8474;SDS011;4274;52.012;8.448;2022-08-19T15:10:53;49.20;;;3.60;;
8474;SDS011;4274;52.012;8.448;2022-08-19T15:13:19;52.23;;;3.67;;
8474;SDS011;4274;52.012;8.448;2022-08-19T15:15:46;48.47;;;3.23;;
8474;SDS011;4274;52.012;8.448;2022-08-19T15:18:12;52.90;;;3.40;;
8474;SDS011;4274;52.012;8.448;2022-08-19T15:20:38;48.37;;;3.20;;
8474;SDS011;4274;52.012;8.448;2022-08-19T15:23:04;50.50;;;3.57;;
8474;SDS011;4274;52.012;8.448;2022-08-19T15:25:30;49.10;;;3.80;;
8474;SDS011;4274;52.012;8.448;2022-08-19T15:27:57;50.90;;;3.70;;
8474;SDS011;4274;52.012;8.448;2022-08-19T15:30:25;50.13;;;3.63;;
8474;SDS011;4274;52.012;8.448;2022-08-19T15:32:53;48.77;;;3.93;;
8474;SDS011;4274;52.012;8.448;2022-08-19T15:35:21;49.00;;;3.80;;
8474;SDS011;4274;52.012;8.448;2022-08-19T15:37:48;50.00;;;3.40;;
8474;SDS011;4274;52.012;8.448;2022-08-19T15:40:15;50.97;;;4.23;;
8474;SDS011;4274;52.012;8.448;2022-08-19T15:42:40;49.87;;;3.90;;
8474;SDS011;4274;52.012;8.448;2022-08-19T15:45:08;48.47;;;3.60;;
8474;SDS011;4274;52.012;8.448;2022-08-19T15:47:36;56.70;;;4.30;;
8474;SDS011;4274;52.012;8.448;2022-08-19T15:52:32;53.20;;;3.97;;
8474;SDS011;4274;52.012;8.448;2022-08-19T15:54:58;53.23;;;4.83;;
8474;SDS011;4274;52.012;8.448;2022-08-19T15:57:24;48.90;;;3.50;;
8474;SDS011;4274;52.012;8.448;2022-08-19T15:59:50;48.80;;;3.60;;
8474;SDS011;4274;52.012;8.448;2022-08-19T16:02:34;48.40;;;3.73;;
8474;SDS011;4274;52.012;8.448;2022-08-19T16:05:19;49.67;;;3.80;;
8474;SDS011;4274;52.012;8.448;2022-08-19T16:08:07;49.97;;;3.90;;
8474;SDS011;4274;52.012;8.448;2022-08-19T16:10:34;52.47;;;4.17;;
8474;SDS011;4274;52.012;8.448;2022-08-19T16:13:00;54.23;;;4.20;;
8474;SDS011;4274;52.012;8.448;2022-08-19T16:15:27;50.77;;;3.80;;
8474;SDS011;4274;52.012;8.448;2022-08-19T16:17:54;49.70;;;3.93;;
8474;SDS011;4274;52.012;8.448;2022-08-19T16:20:21;53.90;;;4.10;;
8474;SDS011;4274;52.012;8.448;2022-08-19T16:22:47;51.37;;;4.40;;
8474;SDS011;4274;52.012;8.448;2022-08-19T16:25:13;49.63;;;4.63;;
8474;SDS011;4274;52.012;8.448;2022-08-19T16:27:39;49.00;;;3.77;;
8474;SDS011;4274;52.012;8.448;2022-08-19T16:30:06;50.03;;;4.13;;
8474;SDS011;4274;52.012;8.448;2022-08-19T16:32:32;50.43;;;4.27;;
8474;SDS011;4274;52.012;8.448;2022-08-19T16:34:58;55.60;;;3.63;;
8474;SDS011;4274;52.012;8.448;2022-08-19T16:37:27;49.67;;;4.00;;
8474;SDS011;4274;52.012;8.448;2022-08-19T16:39:52;50.80;;;4.03;;
8474;SDS011;4274;52.012;8.448;2022-08-19T16:42:18;51.40;;;4.03;;
8474;SDS011;4274;52.012;8.448;2022-08-19T16:44:44;50.60;;;4.27;;
8474;SDS011;4274;52.012;8.448;2022-08-19T16:47:11;50.90;;;4.40;;
8474;SDS011;4274;52.012;8.448;2022-08-19T16:49:37;51.37;;;4.67;;
8474;SDS011;4274;52.012;8.448;2022-08-19T16:52:04;49.27;;;4.20;;
8474;SDS011;4274;52.012;8.448;2022-08-19T16:54:30;49.70;;;4.23;;
8474;SDS011;4274;52.012;8.448;2022-08-19T16:56:56;50.60;;;4.77;;
8474;SDS011;4274;52.012;8.448;2022-08-19T16:59:22;52.03;;;4.30;;
8474;SDS011;4274;52.012;8.448;2022-08-19T17:01:49;51.00;;;4.00;;